Ireland METAR reports

 

EIDW - Dublin Airport, Ireland
Distance from station: WNW 13km
Updated: 26/02/2020 00:00
Mostly cloudy
Mostly cloudy
 Wind from W
Wind: W 28 km/h, Gust: 46 km/h
Temperature: 2°C
Wind Chill: -3°C
Dew Point: 0°C
Humidity: 87%
Barometer: 998 hPa
Clouds: Mostly cloudy
Visibility: 10 km
Cloud details: Mostly cloudy 366 m
Mostly cloudy 549 m
2020/02/26 00:00 EIDW 260000Z 26015G25KT 9999 BKN012 BKN018 02/M00 Q0998 NOSIG
EIME - Casement (mil), Ireland
Distance from station: WSW 26km
Updated: 26/02/2020 00:00
Few Clouds
Few Clouds
 Wind from W
Wind: W 31 km/h
Temperature: 2°C
Wind Chill: -4°C
Dew Point: 0°C
Humidity: 87%
Barometer: 999 hPa
Clouds: Few Clouds
Visibility: 10 km
Cloud details: Few Clouds 274 m
Mostly cloudy 366 m
Few Clouds 549 m
2020/02/26 00:00 EIME 260000Z 26017KT 9999 FEW009 BKN012 FEW018CB 02/00 Q0999
 
EGAC - Belfast Harbour, United Kingdom
Distance from station: N 140km
Updated: 26/02/2020 00:20
Light rain, Mostly cloudy
Light rain, Mostly cloudy
 Wind from W
Wind: W 11 km/h
Temperature: 2°C
Wind Chill: -1°C
Dew Point: 1°C
Humidity: 93%
Barometer: 996 hPa
Summary: Light rain
Clouds: Mostly cloudy
Visibility: 10 km
Cloud details: Partly cloudy 549 m
Mostly cloudy 975 m
Mostly cloudy 1280 m
2020/02/26 00:20 EGAC 260020Z AUTO 26006KT 220V300 9999 -RA SCT018/// BKN032/// BKN042/// 02/01 Q0996
EGAA - Belfast/Aldergro, United Kingdom
Distance from station: N 141km
Updated: 26/02/2020 00:20
Mostly cloudy
Mostly cloudy
 Wind from W
Wind: W 22 km/h
Temperature: 2°C
Wind Chill: -3°C
Dew Point: 1°C
Humidity: 93%
Barometer: 996 hPa
Clouds: Mostly cloudy
Visibility: 10 km
Cloud details: Mostly cloudy 244 m
Mostly cloudy 396 m
Mostly cloudy 1494 m
2020/02/26 00:20 EGAA 260020Z 26012KT 9999 BKN008 BKN013 BKN049 02/01 Q0996
 
EIWF - Waterford Arpt, Ireland
Distance from station: SSW 148km
Updated: 25/02/2020 20:30
NOT Current
Light snow, Showers, Few clouds
Light snow, Showers, Few clouds
 Wind from WNW
Wind: WNW 22 km/h
Temperature: 1°C
Wind Chill: -4°C
Dew Point: 0°C
Humidity: 93%
Barometer: 1001 hPa
Summary: Light snow, Showers
Clouds: Few Clouds
Visibility: 10 km
Cloud details: Few Clouds 213 m
2020/02/25 20:30 EIWF 252030Z 29012KT 250V320 9999 -SHSN FEW007 01/00 Q1001 R21/2/////
EIKN - Connaught Apt, Ireland
Distance from station: WNW 191km
Updated: 25/02/2020 20:30
NOT Current
Light rain, Showers, Small hail, Partly cloudy
Light rain, Showers, Small hail, Partly cloudy
 Wind from W
Wind: W 22 km/h
Temperature: 0°C
Wind Chill: -6°C
Dew Point: 0°C
Humidity: 100%
Barometer: 996 hPa
Summary: Light rain, Showers, Small hail
Clouds: Partly cloudy
Visibility: 4 km
Cloud details: Few Clouds 549 m
Partly cloudy 610 m
2020/02/25 20:30 EIKN 252030Z 27012KT 4000 -SHRAGS FEW018 SCT020CB 00/00 Q0996 NOSIG
 
EISG - Sligo Arpt, Ireland
Distance from station: WNW 195km
Updated: 25/02/2020 18:00
NOT Current
Few Clouds
Few Clouds
 Wind from W
Wind: W 33 km/h
Temperature: 4°C
Wind Chill: -2°C
Dew Point: 2°C
Humidity: 87%
Barometer: 995 hPa
Clouds: Few Clouds
Visibility: 10 km
Cloud details: Few Clouds 975 m
2020/02/25 18:00 EISG 251800Z 26018KT 9999 FEW032 04/02 Q0995
EGAE - Eglinton/Londond, United Kingdom
Distance from station: NNW 198km
Updated: 25/02/2020 20:50
NOT Current
Few Clouds
Few Clouds
 Wind from WSW
Wind: WSW 20 km/h
Temperature: 3°C
Wind Chill: -2°C
Dew Point: 1°C
Humidity: 87%
Barometer: 993 hPa
Clouds: Few Clouds
Visibility: 10 km
Cloud details: Few Clouds 366 m
2020/02/25 20:50 EGAE 252050Z 24011KT 9999 FEW012 03/01 Q0993
 
EINN - Shannon Airport, Ireland
Distance from station: WSW 204km
Updated: 26/02/2020 00:00
Mostly cloudy
Mostly cloudy
 Wind from W
Wind: W 26 km/h
Temperature: 3°C
Wind Chill: -2°C
Dew Point: 1°C
Humidity: 87%
Barometer: 1004 hPa
Clouds: Mostly cloudy
Visibility: 10 km
Cloud details: Few Clouds 366 m
Partly cloudy 549 m
Mostly cloudy 2134 m
2020/02/26 00:00 EINN 260000Z 27014KT 9999 FEW012 SCT018CB BKN070 03/01 Q1004 NOSIG
EICK - Cork Arpt/Corcai, Ireland
Distance from station: SW 234km
Updated: 26/02/2020 00:00
Few Clouds
Few Clouds
 Wind from W
Wind: W 31 km/h
Temperature: 2°C
Wind Chill: -4°C
Dew Point: -3°C
Humidity: 70%
Barometer: 1005 hPa
Clouds: Few Clouds
Visibility: 10 km
Cloud details: Few Clouds 305 m
Few Clouds 549 m
2020/02/26 00:00 EICK 260000Z 28017KT 9999 FEW010 FEW018CB 02/M03 Q1005 NOSIG